createdAt,value
2023-05-22T00:00:56.124Z,5.78
2023-05-22T00:05:49.666Z,5.22
2023-05-22T00:10:43.577Z,5.00
2023-05-22T00:15:36.897Z,5.18
2023-05-22T00:20:31.573Z,5.88
2023-05-22T00:25:24.984Z,4.60
2023-05-22T00:30:18.444Z,5.55
2023-05-22T00:35:12.080Z,5.07
2023-05-22T00:40:09.642Z,5.18
2023-05-22T00:45:02.961Z,4.80
2023-05-22T00:49:56.967Z,5.10
2023-05-22T00:54:54.811Z,5.78
2023-05-22T00:59:50.715Z,6.85
2023-05-22T01:04:48.514Z,6.47
2023-05-22T01:09:41.866Z,5.88
2023-05-22T01:14:48.387Z,5.82
2023-05-22T01:20:14.342Z,6.28
2023-05-22T01:25:37.315Z,8.38
2023-05-22T01:31:00.667Z,9.63
2023-05-22T01:35:58.523Z,7.20
2023-05-22T01:40:52.214Z,6.90
2023-05-22T01:45:46.103Z,7.30
2023-05-22T01:50:41.932Z,7.50
2023-05-22T01:55:46.352Z,7.20
2023-05-22T02:00:45.988Z,8.07
2023-05-22T02:05:42.025Z,7.25
2023-05-22T02:10:37.700Z,6.85
2023-05-22T02:15:32.152Z,6.88
2023-05-22T02:20:25.539Z,7.60
2023-05-22T02:25:20.330Z,7.38
2023-05-22T02:30:15.499Z,7.57
2023-05-22T02:35:10.247Z,7.93
2023-05-22T02:40:06.171Z,8.63
2023-05-22T02:45:01.006Z,7.35
2023-05-22T02:49:54.366Z,7.07
2023-05-22T02:54:47.683Z,8.15
2023-05-22T02:59:41.000Z,7.90
2023-05-22T03:04:38.648Z,8.07
2023-05-22T03:09:32.031Z,7.57
2023-05-22T03:14:25.431Z,8.00
2023-05-22T03:19:18.763Z,8.02
2023-05-22T03:24:13.725Z,8.73
2023-05-22T03:29:07.115Z,8.60
2023-05-22T03:34:00.897Z,8.35
2023-05-22T03:38:54.564Z,7.70
2023-05-22T03:43:49.312Z,8.00
2023-05-22T03:48:42.684Z,8.10
2023-05-22T03:53:36.014Z,8.25
2023-05-22T03:58:29.333Z,7.68
2023-05-22T04:03:24.149Z,8.90
2023-05-22T04:08:17.516Z,8.88
2023-05-22T04:13:10.900Z,8.20
2023-05-22T04:18:04.275Z,8.38
2023-05-22T04:22:59.136Z,8.13
2023-05-22T04:27:52.501Z,8.73
2023-05-22T04:32:45.892Z,8.95
2023-05-22T04:37:40.835Z,9.10
2023-05-22T04:42:37.375Z,8.30
2023-05-22T04:47:31.831Z,9.55
2023-05-22T04:52:25.576Z,8.65
2023-05-22T04:57:18.941Z,8.57
2023-05-22T05:02:13.760Z,9.48
2023-05-22T05:07:07.229Z,9.20
2023-05-22T05:12:00.603Z,9.00
2023-05-22T05:16:54.804Z,9.63
2023-05-22T05:21:50.471Z,9.88
2023-05-22T05:26:44.104Z,10.70
2023-05-22T05:31:37.494Z,10.93
2023-05-22T05:36:31.616Z,11.65
2023-05-22T05:41:27.233Z,10.48
2023-05-22T05:46:20.928Z,9.60
2023-05-22T05:51:14.452Z,9.32
2023-05-22T05:56:09.392Z,9.57
2023-05-22T06:01:04.926Z,8.93
2023-05-22T06:05:59.375Z,9.25
2023-05-22T06:10:52.946Z,8.45
2023-05-22T06:15:46.294Z,8.85
2023-05-22T06:20:41.320Z,8.25
2023-05-22T06:25:34.961Z,8.68
2023-05-22T06:30:39.612Z,9.05
2023-05-22T06:35:33.655Z,8.32
2023-05-22T06:40:28.442Z,8.25
2023-05-22T06:45:21.868Z,9.82
2023-05-22T06:50:15.249Z,9.35
2023-05-22T06:55:09.929Z,9.35
2023-05-22T07:00:07.685Z,10.25
2023-05-22T07:05:01.078Z,9.73
2023-05-22T07:09:54.526Z,9.40
2023-05-22T07:14:47.953Z,9.43
2023-05-22T07:19:42.655Z,10.32
2023-05-22T07:24:36.241Z,9.93
2023-05-22T07:29:29.615Z,8.57
2023-05-22T07:34:23.424Z,7.47
2023-05-22T07:39:18.137Z,9.13
2023-05-22T07:44:11.521Z,7.47
2023-05-22T07:49:04.854Z,7.10
2023-05-22T07:58:53.789Z,5.80
2023-05-22T08:03:47.297Z,6.28
2023-05-22T08:08:40.710Z,5.68
2023-05-22T08:13:34.092Z,5.68
2023-05-22T08:18:29.570Z,5.90
2023-05-22T08:23:23.330Z,5.43
2023-05-22T08:28:16.697Z,5.47
2023-05-22T08:33:10.036Z,5.18
2023-05-22T08:38:04.974Z,5.75
2023-05-22T08:42:58.541Z,5.60
2023-05-22T08:47:56.585Z,5.28
2023-05-22T08:52:58.396Z,6.57
2023-05-22T08:57:54.022Z,7.38
2023-05-22T09:02:49.102Z,7.03
2023-05-22T09:07:42.521Z,6.97
2023-05-22T09:12:37.934Z,7.50
2023-05-22T09:17:32.634Z,7.90
2023-05-22T09:22:39.019Z,7.45
2023-05-22T09:27:32.407Z,7.25
2023-05-22T09:32:26.133Z,7.88
2023-05-22T09:37:20.867Z,7.55
2023-05-22T09:42:17.786Z,7.25
2023-05-22T09:47:11.645Z,8.68
2023-05-22T09:52:09.784Z,8.15
2023-05-22T09:57:10.473Z,8.05
2023-05-22T10:02:04.214Z,8.45
2023-05-22T10:07:03.709Z,8.82
2023-05-22T10:12:05.178Z,7.78
2023-05-22T10:17:03.130Z,7.63
2023-05-22T10:22:01.509Z,8.45
2023-05-22T10:26:56.398Z,8.15
2023-05-22T10:32:00.165Z,8.32
2023-05-22T10:37:18.322Z,7.10
2023-05-22T10:42:15.527Z,7.10
2023-05-22T10:47:12.668Z,6.72
2023-05-22T10:52:10.165Z,7.40
2023-05-22T10:57:14.617Z,6.20
2023-05-22T11:02:20.777Z,6.65
2023-05-22T11:07:15.616Z,7.72
2023-05-22T11:12:25.833Z,6.75
2023-05-22T11:17:23.123Z,6.68
2023-05-22T11:22:19.363Z,6.63
2023-05-22T11:27:12.827Z,7.28
2023-05-22T11:32:09.172Z,7.15
2023-05-22T11:37:02.740Z,7.05
2023-05-22T11:41:57.480Z,6.20
2023-05-22T11:46:51.162Z,5.75
2023-05-22T11:51:45.108Z,6.20
2023-05-22T11:56:38.440Z,4.60
2023-05-22T12:01:33.990Z,5.60
2023-05-22T12:06:27.503Z,6.13
2023-05-22T12:11:21.676Z,5.93
2023-05-22T12:16:23.004Z,6.00
2023-05-22T12:21:20.542Z,6.18
2023-05-22T12:26:13.871Z,5.30
2023-05-22T12:31:07.231Z,6.00
2023-05-22T12:36:00.891Z,5.43
2023-05-22T12:40:57.271Z,5.07
2023-05-22T12:45:50.666Z,4.72
2023-05-22T12:50:44.252Z,4.60
2023-05-22T12:55:37.873Z,4.95
2023-05-22T13:00:32.702Z,4.68
2023-05-22T13:05:26.490Z,4.55
2023-05-22T13:10:20.434Z,4.63
2023-05-22T13:15:15.378Z,4.90
2023-05-22T13:20:12.152Z,5.30
2023-05-22T13:25:06.828Z,4.50
2023-05-22T13:30:00.203Z,4.63
2023-05-22T13:34:53.591Z,4.30
2023-05-22T13:39:48.588Z,4.28
2023-05-22T13:44:41.943Z,4.18
2023-05-22T13:49:35.329Z,4.40
2023-05-22T13:54:29.164Z,4.88
2023-05-22T13:59:23.926Z,4.50
2023-05-22T14:04:17.369Z,4.13
2023-05-22T14:09:10.775Z,4.82
2023-05-22T14:14:04.200Z,4.80
2023-05-22T14:19:00.983Z,4.50
2023-05-22T14:23:54.382Z,4.72
2023-05-22T14:28:47.670Z,4.60
2023-05-22T14:33:41.005Z,5.05
2023-05-22T14:38:36.295Z,4.80
2023-05-22T14:43:29.726Z,4.43
2023-05-22T14:48:26.294Z,4.68
2023-05-22T14:53:19.860Z,4.97
2023-05-22T14:58:14.741Z,4.90
2023-05-22T15:03:08.164Z,4.30
2023-05-22T15:08:01.654Z,4.65
2023-05-22T15:12:55.241Z,4.78
2023-05-22T15:17:49.973Z,4.78
2023-05-22T15:22:43.312Z,5.13
2023-05-22T15:27:37.355Z,5.10
2023-05-22T15:32:31.616Z,5.20
2023-05-22T15:37:26.417Z,4.97
2023-05-22T15:42:19.829Z,4.90
2023-05-22T15:47:13.202Z,5.15
2023-05-22T15:52:06.995Z,4.60
2023-05-22T15:57:01.868Z,5.70
2023-05-22T16:01:55.217Z,5.55
2023-05-22T16:06:48.635Z,5.85
2023-05-22T16:11:41.979Z,5.40
2023-05-22T16:16:36.997Z,5.70
2023-05-22T16:21:31.002Z,5.40
2023-05-22T16:26:24.421Z,6.03
2023-05-22T16:31:19.800Z,5.40
2023-05-22T16:36:14.645Z,5.43
2023-05-22T16:41:07.980Z,5.30
2023-05-22T16:46:01.304Z,5.55
2023-05-22T16:50:54.652Z,6.05
2023-05-22T16:55:49.443Z,5.25
2023-05-22T17:00:43.037Z,5.57
2023-05-22T17:05:36.632Z,5.35
2023-05-22T17:10:30.082Z,5.57
2023-05-22T17:15:24.864Z,5.38
2023-05-22T17:20:19.002Z,5.13
2023-05-22T17:25:12.428Z,4.97
2023-05-22T17:30:07.850Z,4.82
2023-05-22T17:35:03.324Z,5.03
2023-05-22T17:39:56.685Z,5.00
2023-05-22T17:44:50.000Z,5.10
2023-05-22T17:49:43.310Z,4.38
2023-05-22T17:54:37.989Z,4.68
2023-05-22T17:59:32.155Z,4.75
2023-05-22T18:04:25.495Z,4.72
2023-05-22T18:09:18.884Z,5.30
2023-05-22T18:14:13.629Z,4.85
2023-05-22T18:19:07.103Z,4.88
2023-05-22T18:24:00.496Z,4.55
2023-05-22T18:29:10.360Z,4.57
2023-05-22T18:34:08.990Z,5.20
2023-05-22T18:39:02.336Z,4.50
2023-05-22T18:43:55.672Z,4.30
2023-05-22T18:48:49.907Z,4.55
2023-05-22T18:53:44.576Z,4.65
2023-05-22T18:58:41.273Z,4.78
2023-05-22T19:03:34.667Z,4.85
2023-05-22T19:08:34.696Z,4.60
2023-05-22T19:13:29.838Z,4.63
2023-05-22T19:18:23.350Z,4.90
2023-05-22T19:23:16.757Z,4.40
2023-05-22T19:28:10.076Z,4.78
2023-05-22T19:33:06.536Z,4.85
2023-05-22T19:38:02.126Z,4.78
2023-05-22T19:42:55.501Z,4.97
2023-05-22T19:47:48.896Z,4.80
2023-05-22T19:52:43.636Z,5.18
2023-05-22T19:57:37.284Z,5.10
2023-05-22T20:02:30.647Z,5.55
2023-05-22T20:07:24.023Z,5.40
2023-05-22T20:12:18.724Z,5.57
2023-05-22T20:17:12.033Z,5.60
2023-05-22T20:22:06.152Z,5.75
2023-05-22T20:26:59.435Z,6.35
2023-05-22T20:31:55.845Z,6.45
2023-05-22T20:36:50.894Z,6.05
2023-05-22T20:41:44.232Z,5.68
2023-05-22T20:46:39.166Z,6.72
2023-05-22T20:51:33.901Z,6.68
2023-05-22T20:56:27.656Z,6.45
2023-05-22T21:01:21.150Z,6.07
2023-05-22T21:06:14.620Z,6.63
2023-05-22T21:11:09.303Z,6.10
2023-05-22T21:16:02.656Z,6.53
2023-05-22T21:20:56.125Z,6.43
2023-05-22T21:25:49.584Z,6.82
2023-05-22T21:31:23.633Z,6.85
2023-05-22T21:36:07.775Z,6.90
2023-05-22T21:41:01.211Z,6.18
2023-05-22T21:45:55.891Z,6.50
2023-05-22T21:50:50.303Z,6.70
2023-05-22T21:55:43.599Z,6.32
2023-05-22T22:00:37.257Z,6.95
2023-05-22T22:05:34.444Z,6.30
2023-05-22T22:10:27.824Z,6.82
2023-05-22T22:15:21.782Z,6.28
2023-05-22T22:20:15.081Z,6.97
2023-05-22T22:25:11.108Z,6.65
2023-05-22T22:30:04.886Z,6.85
2023-05-22T22:34:58.231Z,7.05
2023-05-22T22:39:51.628Z,7.30
2023-05-22T22:44:46.380Z,6.85
2023-05-22T22:49:39.693Z,6.82
2023-05-22T22:54:33.000Z,7.18
2023-05-22T22:59:26.475Z,7.35
2023-05-22T23:04:21.286Z,7.22
2023-05-22T23:09:14.787Z,7.47
2023-05-22T23:14:09.915Z,8.77
2023-05-22T23:19:03.812Z,7.53
2023-05-22T23:23:58.597Z,7.82
2023-05-22T23:28:51.940Z,7.20
2023-05-22T23:33:45.815Z,8.00
2023-05-22T23:38:39.168Z,7.68
2023-05-22T23:43:34.047Z,7.53
2023-05-22T23:48:27.359Z,7.63
2023-05-22T23:53:20.690Z,8.32
2023-05-22T23:58:15.915Z,8.13
